EGKK/LGW METAR and TAF weather

Enter ICAO airport designator
Station Type Date Time Source
EGKK METAR 2018/07/19 07:20 UTC NOAA

EGKK 190720Z 08003KT CAVOK 18/12 Q1019


Station Type Date Time Source
EGKK Decoded METAR 2018/07/19 07:20 UTC NOAA

London / Gatwick Airport, United Kingdom (EGKK) 51-09N 000-11W 0M
Jul 19, 2018 - 03:20 AM EDT / 2018.07.19 0720 UTC
Wind: from the E (080 degrees) at 3 MPH (3 KT):0
Visibility: greater than 7 mile(s):0
Temperature: 64 F (18 C)
Dew Point: 53 F (12 C)
Relative Humidity: 67%
Pressure (altimeter): 30.09 in. Hg (1019 hPa)
ob: EGKK 190720Z 08003KT CAVOK 18/12 Q1019
cycle: 7

Station Type Date Time Source
EGKK TAF 2018/07/19 06:22 UTC NOAA

TAF EGKK 190452Z 1906/2012 VRB03KT 9999 FEW045


Example: see airport list